createdAt,value
2017-08-03T00:00:13.424Z,99947.23
2017-08-03T00:02:42.970Z,99943.93
2017-08-03T00:05:12.910Z,99941.58
2017-08-03T00:07:42.479Z,99947.95
2017-08-03T00:10:12.032Z,99949.52
2017-08-03T00:12:41.623Z,99944.86
2017-08-03T00:15:11.177Z,99947.70
2017-08-03T00:17:40.775Z,99947.06
2017-08-03T00:20:11.109Z,99940.06
2017-08-03T00:22:40.640Z,99933.52
2017-08-03T00:25:10.541Z,99937.44
2017-08-03T00:27:40.099Z,99932.63
2017-08-03T00:30:09.648Z,99930.67
2017-08-03T00:32:39.217Z,99925.29
2017-08-03T00:35:08.785Z,99926.39
2017-08-03T00:37:38.337Z,99907.70
2017-08-03T00:40:07.873Z,99909.13
2017-08-03T00:42:37.495Z,99899.20
2017-08-03T00:45:07.019Z,99897.69
2017-08-03T00:47:36.400Z,99903.69
2017-08-03T00:50:05.265Z,99896.62
2017-08-03T00:52:35.561Z,99893.90
2017-08-03T00:55:04.779Z,99890.34
2017-08-03T00:57:34.318Z,99880.83
2017-08-03T01:00:03.849Z,99882.80
2017-08-03T01:02:33.393Z,99875.23
2017-08-03T01:05:02.916Z,99879.72
2017-08-03T01:07:32.473Z,99881.35
2017-08-03T01:10:02.301Z,99883.12
2017-08-03T01:12:31.845Z,99879.80
2017-08-03T01:15:01.029Z,99877.38
2017-08-03T01:17:30.577Z,99872.97
2017-08-03T01:20:00.120Z,99869.22
2017-08-03T01:22:29.693Z,99861.86
2017-08-03T01:24:59.224Z,99863.18
2017-08-03T01:27:28.792Z,99864.30
2017-08-03T01:29:58.377Z,99867.64
2017-08-03T01:32:27.911Z,99868.61
2017-08-03T01:34:57.129Z,99865.89
2017-08-03T01:37:26.349Z,99858.84
2017-08-03T01:39:56.399Z,99849.82
2017-08-03T01:42:26.051Z,99847.29
2017-08-03T01:44:55.660Z,99857.81
2017-08-03T01:47:25.233Z,99865.14
2017-08-03T01:49:54.770Z,99869.72
2017-08-03T01:52:23.967Z,99862.43
2017-08-03T01:54:52.829Z,99859.52
2017-08-03T01:57:22.392Z,99862.03
2017-08-03T01:59:51.931Z,99855.81
2017-08-03T02:02:21.459Z,99847.70
2017-08-03T02:04:50.643Z,99851.18
2017-08-03T02:07:20.248Z,99840.47
2017-08-03T02:09:50.214Z,99835.19
2017-08-03T02:12:19.799Z,99835.41
2017-08-03T02:14:49.335Z,99831.90
2017-08-03T02:17:18.888Z,99829.98
2017-08-03T02:19:48.420Z,99828.30
2017-08-03T02:22:18.077Z,99814.59
2017-08-03T02:24:47.642Z,99802.78
2017-08-03T02:27:17.183Z,99800.75
2017-08-03T02:29:46.912Z,99797.05
2017-08-03T02:32:16.555Z,99810.51
2017-08-03T02:34:46.144Z,99813.41
2017-08-03T02:37:15.715Z,99818.07
2017-08-03T02:39:45.316Z,99814.08
2017-08-03T02:42:14.885Z,99821.06
2017-08-03T02:44:44.430Z,99821.85
2017-08-03T02:47:13.993Z,99828.49
2017-08-03T02:49:43.560Z,99823.41
2017-08-03T02:52:13.135Z,99823.68
2017-08-03T02:54:42.689Z,99818.20
2017-08-03T02:57:11.328Z,99809.37
2017-08-03T02:59:40.912Z,99802.73
2017-08-03T03:02:10.473Z,99798.23
2017-08-03T03:04:40.048Z,99812.34
2017-08-03T03:07:09.238Z,99809.37
2017-08-03T03:09:38.754Z,99787.64
2017-08-03T03:12:08.497Z,99792.70
2017-08-03T03:14:38.007Z,99792.14
2017-08-03T03:17:07.567Z,99803.47
2017-08-03T03:19:37.209Z,99802.37
2017-08-03T03:22:06.774Z,99797.04
2017-08-03T03:24:36.308Z,99792.77
2017-08-03T03:27:05.902Z,99798.45
2017-08-03T03:29:35.507Z,99802.42
2017-08-03T03:32:05.066Z,99801.28
2017-08-03T03:34:35.407Z,99791.00
2017-08-03T03:37:05.721Z,99785.14
2017-08-03T03:39:35.271Z,99787.80
2017-08-03T03:42:04.832Z,99787.42
2017-08-03T03:44:36.084Z,99795.47
2017-08-03T03:47:06.386Z,99795.73
2017-08-03T03:49:35.949Z,99790.34
2017-08-03T03:52:05.500Z,99790.19
2017-08-03T03:54:35.273Z,99789.89
2017-08-03T03:57:04.853Z,99793.59
2017-08-03T03:59:35.148Z,99792.39
2017-08-03T04:02:04.718Z,99782.31
2017-08-03T04:04:34.240Z,99766.06
2017-08-03T04:07:03.808Z,99769.62
2017-08-03T04:09:33.373Z,99778.94
2017-08-03T04:12:02.575Z,99785.34
2017-08-03T04:14:32.166Z,99781.91
2017-08-03T04:17:01.793Z,99784.09
2017-08-03T04:19:31.336Z,99781.38
2017-08-03T04:22:00.887Z,99780.39
2017-08-03T04:24:30.084Z,99775.94
2017-08-03T04:26:59.615Z,99779.55
2017-08-03T04:29:29.181Z,99771.65
2017-08-03T04:31:58.828Z,99766.19
2017-08-03T04:34:28.389Z,99764.75
2017-08-03T04:36:57.933Z,99761.28
2017-08-03T04:39:27.544Z,99761.48
2017-08-03T04:41:57.101Z,99756.75
2017-08-03T04:44:26.656Z,99761.36
2017-08-03T04:46:56.213Z,99758.75
2017-08-03T04:49:25.751Z,99757.75
2017-08-03T04:51:55.387Z,99752.22
2017-08-03T04:54:24.957Z,99752.86
2017-08-03T04:56:54.481Z,99754.92
2017-08-03T04:59:24.210Z,99748.48
2017-08-03T05:01:53.744Z,99749.48
2017-08-03T05:04:23.297Z,99749.34
2017-08-03T05:06:52.850Z,99743.86
2017-08-03T05:09:22.046Z,99738.84
2017-08-03T05:11:51.909Z,99735.25
2017-08-03T05:14:21.480Z,99738.05
2017-08-03T05:16:51.023Z,99735.73
2017-08-03T05:19:20.587Z,99738.85
2017-08-03T05:21:50.902Z,99747.98
2017-08-03T05:24:20.461Z,99739.73
2017-08-03T05:26:50.006Z,99745.37
2017-08-03T05:29:19.560Z,99728.69
2017-08-03T05:31:49.119Z,99723.95
2017-08-03T05:34:18.683Z,99719.66
2017-08-03T05:36:48.357Z,99718.71
2017-08-03T05:39:17.954Z,99721.36
2017-08-03T05:41:47.521Z,99720.70
2017-08-03T05:44:17.033Z,99712.20
2017-08-03T05:46:46.634Z,99706.20
2017-08-03T05:49:16.342Z,99705.34
2017-08-03T05:51:45.883Z,99694.38
2017-08-03T05:54:16.191Z,99693.21
2017-08-03T05:56:45.712Z,99702.17
2017-08-03T05:59:15.305Z,99711.45
2017-08-03T06:01:44.924Z,99717.84
2017-08-03T06:04:14.662Z,99714.20
2017-08-03T06:06:44.788Z,99717.05
2017-08-03T06:09:14.301Z,99707.55
2017-08-03T06:11:43.849Z,99711.43
2017-08-03T06:14:13.433Z,99710.03
2017-08-03T06:16:43.001Z,99703.73
2017-08-03T06:19:13.312Z,99711.09
2017-08-03T06:21:42.873Z,99713.48
2017-08-03T06:24:12.421Z,99711.80
2017-08-03T06:26:41.942Z,99712.52
2017-08-03T06:29:11.528Z,99714.84
2017-08-03T06:31:41.136Z,99718.53
2017-08-03T06:34:10.669Z,99726.31
2017-08-03T06:36:40.984Z,99721.96
2017-08-03T06:39:11.289Z,99726.02
2017-08-03T06:41:40.863Z,99718.56
2017-08-03T06:44:10.388Z,99712.59
2017-08-03T06:46:39.951Z,99700.11
2017-08-03T06:49:09.481Z,99697.75
2017-08-03T06:51:39.048Z,99693.35
2017-08-03T06:54:09.376Z,99690.44
2017-08-03T06:56:39.681Z,99683.98
2017-08-03T06:59:09.230Z,99678.50
2017-08-03T07:01:38.801Z,99685.70
2017-08-03T07:04:09.132Z,99684.28
2017-08-03T07:06:39.450Z,99679.06
2017-08-03T07:09:08.656Z,99678.83
2017-08-03T07:11:38.956Z,99665.87
2017-08-03T07:14:08.497Z,99665.56
2017-08-03T07:16:38.609Z,99667.91
2017-08-03T07:19:08.948Z,99674.44
2017-08-03T07:21:38.143Z,99676.77
2017-08-03T07:24:08.467Z,99663.28
2017-08-03T07:26:38.752Z,99656.91
2017-08-03T07:29:08.356Z,99650.13
2017-08-03T07:31:37.933Z,99635.86
2017-08-03T07:34:07.508Z,99641.89
2017-08-03T07:36:37.844Z,99635.42
2017-08-03T07:39:07.034Z,99637.06
2017-08-03T07:41:37.356Z,99633.89
2017-08-03T07:44:07.717Z,99635.66
2017-08-03T07:46:37.290Z,99631.70
2017-08-03T07:49:07.645Z,99632.00
2017-08-03T07:51:37.217Z,99634.30
2017-08-03T07:54:07.534Z,99632.91
2017-08-03T07:56:38.011Z,99632.42
2017-08-03T07:59:07.533Z,99631.30
2017-08-03T08:01:37.094Z,99624.67
2017-08-03T08:04:07.491Z,99626.92
2017-08-03T08:06:37.027Z,99625.75
2017-08-03T08:09:07.354Z,99628.97
2017-08-03T08:11:36.903Z,99628.88
2017-08-03T08:14:06.435Z,99629.91
2017-08-03T08:16:35.976Z,99629.83
2017-08-03T08:19:05.622Z,99639.08
2017-08-03T08:21:35.191Z,99635.97
2017-08-03T08:24:04.735Z,99642.50
2017-08-03T08:26:34.308Z,99649.05
2017-08-03T08:29:03.882Z,99646.17
2017-08-03T08:31:33.452Z,99661.22
2017-08-03T08:34:03.048Z,99659.03
2017-08-03T08:36:32.598Z,99667.17
2017-08-03T08:39:02.147Z,99665.30
2017-08-03T08:41:31.725Z,99675.27
2017-08-03T08:44:01.246Z,99687.21
2017-08-03T08:46:31.566Z,99701.00
2017-08-03T08:49:01.885Z,99708.37
2017-08-03T08:51:32.393Z,99716.44
2017-08-03T08:54:01.906Z,99722.04
2017-08-03T08:56:31.634Z,99740.41
2017-08-03T08:59:01.961Z,99746.77
2017-08-03T09:01:32.300Z,99749.00
2017-08-03T09:04:01.836Z,99758.92
2017-08-03T09:06:31.366Z,99759.72
2017-08-03T09:09:00.961Z,99763.64
2017-08-03T09:11:30.480Z,99773.52
2017-08-03T09:14:00.060Z,99780.92
2017-08-03T09:16:29.569Z,99792.38
2017-08-03T09:18:59.119Z,99795.30
2017-08-03T09:21:28.717Z,99798.95
2017-08-03T09:23:58.326Z,99805.86
2017-08-03T09:26:27.909Z,99804.80
2017-08-03T09:28:57.423Z,99796.58
2017-08-03T09:31:26.950Z,99800.08
2017-08-03T09:33:56.504Z,99793.31
2017-08-03T09:36:26.063Z,99781.34
2017-08-03T09:38:56.417Z,99766.56
2017-08-03T09:41:26.016Z,99763.98
2017-08-03T09:43:56.356Z,99762.63
2017-08-03T09:46:25.917Z,99751.80
2017-08-03T09:48:55.445Z,99767.55
2017-08-03T09:51:24.659Z,99767.28
2017-08-03T09:53:54.234Z,99758.98
2017-08-03T09:56:24.429Z,99756.81
2017-08-03T09:58:54.165Z,99756.97
2017-08-03T10:01:23.695Z,99744.44
2017-08-03T10:03:54.052Z,99745.31
2017-08-03T10:06:23.229Z,99733.99
2017-08-03T10:08:53.524Z,99719.46
2017-08-03T10:11:23.029Z,99709.96
2017-08-03T10:13:51.631Z,99706.89
2017-08-03T10:16:21.937Z,99699.80
2017-08-03T10:18:51.445Z,99700.05
2017-08-03T10:21:21.011Z,99700.05
2017-08-03T10:23:50.559Z,99692.13
2017-08-03T10:26:20.133Z,99700.12
2017-08-03T10:28:49.669Z,99698.88
2017-08-03T10:31:19.194Z,99695.75
2017-08-03T10:33:49.603Z,99685.88
2017-08-03T10:36:19.254Z,99678.68
2017-08-03T10:38:48.788Z,99678.10
2017-08-03T10:41:18.312Z,99681.07
2017-08-03T10:43:47.843Z,99668.84
2017-08-03T10:46:18.163Z,99665.10
2017-08-03T10:48:47.700Z,99657.56
2017-08-03T10:51:17.235Z,99656.03
2017-08-03T10:53:46.772Z,99660.59
2017-08-03T10:56:16.339Z,99655.91
2017-08-03T10:58:45.897Z,99657.13
2017-08-03T11:01:15.085Z,99664.42
2017-08-03T11:03:44.640Z,99651.42
2017-08-03T11:06:14.197Z,99637.34
2017-08-03T11:08:43.739Z,99630.19
2017-08-03T11:11:14.047Z,99624.36
2017-08-03T11:13:43.750Z,99627.77
2017-08-03T11:16:14.074Z,99625.72
2017-08-03T11:18:43.598Z,99626.03
2017-08-03T11:21:13.930Z,99636.22
2017-08-03T11:23:44.222Z,99645.33
2017-08-03T11:26:13.813Z,99652.58
2017-08-03T11:28:44.048Z,99656.06
2017-08-03T11:31:13.577Z,99652.38
2017-08-03T11:33:43.900Z,99637.13
2017-08-03T11:36:15.073Z,99633.56
2017-08-03T11:38:44.623Z,99627.81
2017-08-03T11:41:14.212Z,99618.58
2017-08-03T11:43:43.743Z,99617.33
2017-08-03T11:46:13.305Z,99619.91
2017-08-03T11:48:42.857Z,99618.34
2017-08-03T11:51:12.594Z,99610.58
2017-08-03T11:53:42.916Z,99606.72
2017-08-03T11:56:13.263Z,99603.56
2017-08-03T11:58:42.794Z,99615.22
2017-08-03T12:01:12.355Z,99614.77
2017-08-03T12:03:42.657Z,99611.72
2017-08-03T12:06:12.230Z,99597.27
2017-08-03T12:08:41.750Z,99598.51
2017-08-03T12:11:11.261Z,99582.50
2017-08-03T12:13:40.808Z,99572.63
2017-08-03T12:16:11.194Z,99571.83
2017-08-03T12:18:40.729Z,99574.16
2017-08-03T12:21:10.275Z,99579.24
2017-08-03T12:23:39.806Z,99576.33
2017-08-03T12:26:09.001Z,99557.19
2017-08-03T12:28:38.571Z,99534.30
2017-08-03T12:31:08.150Z,99523.84
2017-08-03T12:33:37.695Z,99522.55
2017-08-03T12:36:06.545Z,99540.12
2017-08-03T12:38:35.133Z,99538.50
2017-08-03T12:41:04.637Z,99528.20
2017-08-03T12:43:34.154Z,99527.42
2017-08-03T12:46:03.721Z,99532.75
2017-08-03T12:48:33.259Z,99527.39
2017-08-03T12:51:02.821Z,99524.67
2017-08-03T12:53:32.340Z,99528.21
2017-08-03T12:56:01.855Z,99522.91
2017-08-03T12:58:31.406Z,99517.41
2017-08-03T13:01:01.700Z,99498.78
2017-08-03T13:03:31.236Z,99494.36
2017-08-03T13:06:01.536Z,99496.39
2017-08-03T13:08:31.074Z,99494.50
2017-08-03T13:11:00.608Z,99502.06
2017-08-03T13:13:30.196Z,99485.20
2017-08-03T13:15:59.755Z,99475.61
2017-08-03T13:18:29.600Z,99466.02
2017-08-03T13:20:59.904Z,99462.16
2017-08-03T13:23:29.443Z,99465.58
2017-08-03T13:25:59.001Z,99469.64
2017-08-03T13:28:28.532Z,99473.63
2017-08-03T13:30:58.063Z,99461.55
2017-08-03T13:33:27.581Z,99469.61
2017-08-03T13:35:57.133Z,99464.64
2017-08-03T13:38:26.651Z,99463.58
2017-08-03T13:40:56.164Z,99458.20
2017-08-03T13:43:25.697Z,99451.40
2017-08-03T13:45:55.327Z,99451.17
2017-08-03T13:48:24.858Z,99460.42
2017-08-03T13:50:54.390Z,99449.58
2017-08-03T13:53:23.948Z,99454.45
2017-08-03T13:55:53.479Z,99444.22
2017-08-03T13:58:22.999Z,99451.06
2017-08-03T14:00:52.550Z,99443.00
2017-08-03T14:03:22.129Z,99441.17
2017-08-03T14:05:52.423Z,99436.96
2017-08-03T14:08:21.967Z,99430.61
2017-08-03T14:10:52.281Z,99421.91
2017-08-03T14:13:21.806Z,99412.72
2017-08-03T14:15:52.097Z,99414.90
2017-08-03T14:18:21.644Z,99402.61
2017-08-03T14:20:51.199Z,99403.62
2017-08-03T14:23:20.757Z,99406.07
2017-08-03T14:25:50.318Z,99401.69
2017-08-03T14:28:19.842Z,99401.83
2017-08-03T14:30:49.404Z,99396.84
2017-08-03T14:33:18.940Z,99399.81
2017-08-03T14:35:48.482Z,99392.22
2017-08-03T14:38:18.905Z,99397.70
2017-08-03T14:40:49.219Z,99399.20
2017-08-03T14:43:19.535Z,99384.19
2017-08-03T14:45:49.060Z,99375.77
2017-08-03T14:48:19.473Z,99389.27
2017-08-03T14:50:49.001Z,99382.22
2017-08-03T14:53:18.571Z,99393.02
2017-08-03T14:55:48.088Z,99393.09
2017-08-03T14:58:17.622Z,99387.08
2017-08-03T15:00:47.182Z,99390.38
2017-08-03T15:03:16.831Z,99398.91
2017-08-03T15:05:47.155Z,99382.56
2017-08-03T15:08:17.069Z,99379.82
2017-08-03T15:10:47.385Z,99378.08
2017-08-03T15:13:17.661Z,99368.87
2017-08-03T15:15:47.196Z,99376.57
2017-08-03T15:18:16.718Z,99365.12
2017-08-03T15:20:47.087Z,99357.16
2017-08-03T15:23:16.655Z,99355.33
2017-08-03T15:25:46.937Z,99357.24
2017-08-03T15:28:16.836Z,99352.02
2017-08-03T15:30:46.358Z,99340.97
2017-08-03T15:33:15.882Z,99343.88
2017-08-03T15:35:45.414Z,99338.05
2017-08-03T15:38:15.790Z,99343.30
2017-08-03T15:40:45.333Z,99337.89
2017-08-03T15:43:14.918Z,99340.30
2017-08-03T15:45:44.564Z,99346.02
2017-08-03T15:48:15.042Z,99351.16
2017-08-03T15:50:44.586Z,99345.25
2017-08-03T15:53:14.133Z,99350.85
2017-08-03T15:55:43.671Z,99336.48
2017-08-03T15:58:13.311Z,99319.92
2017-08-03T16:00:42.511Z,99328.48
2017-08-03T16:03:12.091Z,99327.61
2017-08-03T16:05:41.600Z,99326.31
2017-08-03T16:08:10.822Z,99337.84
2017-08-03T16:10:40.359Z,99331.56
2017-08-03T16:13:09.900Z,99338.83
2017-08-03T16:15:39.440Z,99327.11
2017-08-03T16:18:08.979Z,99327.93
2017-08-03T16:20:38.613Z,99329.69
2017-08-03T16:23:07.824Z,99340.66
2017-08-03T16:25:37.417Z,99344.02
2017-08-03T16:28:06.947Z,99338.84
2017-08-03T16:30:36.302Z,99340.55
2017-08-03T16:33:05.611Z,99348.26
2017-08-03T16:35:35.178Z,99338.00
2017-08-03T16:38:04.739Z,99341.33
2017-08-03T16:40:37.564Z,99349.81
2017-08-03T16:43:07.141Z,99348.10
2017-08-03T16:45:36.360Z,99346.23
2017-08-03T16:48:05.883Z,99344.92
2017-08-03T16:50:35.586Z,99347.21
2017-08-03T16:53:07.848Z,99352.55
2017-08-03T16:55:38.247Z,99349.85
2017-08-03T16:58:07.865Z,99343.48
2017-08-03T17:00:38.843Z,99345.41
2017-08-03T17:03:09.174Z,99337.77
2017-08-03T17:05:39.500Z,99343.75
2017-08-03T17:08:09.823Z,99338.89
2017-08-03T17:10:40.116Z,99332.20
2017-08-03T17:13:09.822Z,99343.86
2017-08-03T17:15:39.368Z,99342.70
2017-08-03T17:18:09.687Z,99343.91
2017-08-03T17:20:39.982Z,99342.65
2017-08-03T17:23:09.536Z,99345.11
2017-08-03T17:25:39.104Z,99347.34
2017-08-03T17:28:08.736Z,99342.63
2017-08-03T17:30:39.106Z,99352.13
2017-08-03T17:33:08.649Z,99349.98
2017-08-03T17:35:39.891Z,99339.86
2017-08-03T17:38:09.444Z,99350.69
2017-08-03T17:40:38.987Z,99341.05
2017-08-03T17:43:08.345Z,99341.52
2017-08-03T17:45:37.893Z,99348.83
2017-08-03T17:48:07.447Z,99354.15
2017-08-03T17:50:37.806Z,99348.41
2017-08-03T17:53:07.337Z,99355.03
2017-08-03T17:55:36.898Z,99355.84
2017-08-03T17:58:07.124Z,99358.38
2017-08-03T18:00:36.741Z,99350.06
2017-08-03T18:03:06.372Z,99348.10
2017-08-03T18:05:35.974Z,99353.78
2017-08-03T18:08:05.507Z,99363.84
2017-08-03T18:10:35.235Z,99364.91
2017-08-03T18:13:04.752Z,99360.22
2017-08-03T18:15:35.939Z,99365.23
2017-08-03T18:18:05.461Z,99359.88
2017-08-03T18:20:34.997Z,99361.55
2017-08-03T18:23:04.536Z,99365.89
2017-08-03T18:25:34.071Z,99363.74
2017-08-03T18:28:03.588Z,99363.40
2017-08-03T18:30:33.110Z,99355.52
2017-08-03T18:33:02.668Z,99361.04
2017-08-03T18:35:32.203Z,99372.77
2017-08-03T18:38:01.730Z,99369.48
2017-08-03T18:40:31.404Z,99378.27
2017-08-03T18:43:00.930Z,99383.30
2017-08-03T18:45:30.493Z,99381.08
2017-08-03T18:48:00.027Z,99383.69
2017-08-03T18:50:29.627Z,99380.70
2017-08-03T18:52:59.258Z,99384.79
2017-08-03T18:55:28.453Z,99380.80
2017-08-03T18:57:57.969Z,99385.19
2017-08-03T19:00:27.492Z,99388.91
2017-08-03T19:02:57.032Z,99390.41
2017-08-03T19:05:25.887Z,99397.80
2017-08-03T19:07:55.435Z,99388.90
2017-08-03T19:10:24.990Z,99394.52
2017-08-03T19:12:54.546Z,99392.60
2017-08-03T19:15:24.109Z,99398.20
2017-08-03T19:17:54.244Z,99390.11
2017-08-03T19:20:23.788Z,99389.66
2017-08-03T19:22:53.360Z,99400.36
2017-08-03T19:25:22.903Z,99404.31
2017-08-03T19:27:52.451Z,99396.91
2017-08-03T19:30:22.825Z,99401.14
2017-08-03T19:32:52.495Z,99399.05
2017-08-03T19:35:22.008Z,99405.35
2017-08-03T19:37:51.582Z,99412.73
2017-08-03T19:40:21.097Z,99413.52
2017-08-03T19:42:50.621Z,99412.37
2017-08-03T19:45:20.144Z,99413.39
2017-08-03T19:47:50.561Z,99412.66
2017-08-03T19:50:20.065Z,99413.48
2017-08-03T19:52:49.837Z,99422.00
2017-08-03T19:55:19.419Z,99428.91
2017-08-03T19:57:48.966Z,99431.49
2017-08-03T20:00:18.513Z,99430.59
2017-08-03T20:02:48.906Z,99430.45
2017-08-03T20:05:17.498Z,99439.01
2017-08-03T20:07:54.578Z,99433.42
2017-08-03T20:10:23.764Z,99437.34
2017-08-03T20:12:52.368Z,99442.58
2017-08-03T20:15:21.917Z,99442.80
2017-08-03T20:17:51.256Z,99436.63
2017-08-03T20:20:20.669Z,99441.69
2017-08-03T20:22:50.176Z,99444.58
2017-08-03T20:25:19.825Z,99443.52
2017-08-03T20:27:50.133Z,99444.59
2017-08-03T20:30:20.109Z,99445.24
2017-08-03T20:32:49.639Z,99448.11
2017-08-03T20:35:19.200Z,99452.49
2017-08-03T20:37:48.731Z,99457.47
2017-08-03T20:40:18.281Z,99457.80
2017-08-03T20:42:48.558Z,99466.70
2017-08-03T20:45:18.093Z,99463.09
2017-08-03T20:47:47.614Z,99457.68
2017-08-03T20:50:17.174Z,99464.84
2017-08-03T20:52:46.701Z,99470.53
2017-08-03T20:55:16.235Z,99463.81
2017-08-03T20:57:45.800Z,99464.20
2017-08-03T21:00:15.331Z,99465.27
2017-08-03T21:02:45.556Z,99473.77
2017-08-03T21:05:15.124Z,99474.19
2017-08-03T21:07:44.673Z,99469.89
2017-08-03T21:10:14.202Z,99472.11
2017-08-03T21:12:44.670Z,99486.53
2017-08-03T21:15:13.842Z,99489.03
2017-08-03T21:17:43.363Z,99479.09
2017-08-03T21:20:12.559Z,99484.48
2017-08-03T21:22:42.081Z,99484.92
2017-08-03T21:25:12.938Z,99482.38
2017-08-03T21:27:42.516Z,99485.17
2017-08-03T21:30:12.371Z,99486.67
2017-08-03T21:32:42.039Z,99486.11
2017-08-03T21:35:12.166Z,99487.58
2017-08-03T21:37:41.770Z,99487.94
2017-08-03T21:40:11.352Z,99500.63
2017-08-03T21:42:40.899Z,99496.59
2017-08-03T21:45:10.475Z,99499.80
2017-08-03T21:47:40.049Z,99499.25
2017-08-03T21:50:09.231Z,99499.55
2017-08-03T21:52:38.748Z,99501.40
2017-08-03T21:55:08.303Z,99501.25
2017-08-03T21:57:37.842Z,99504.67
2017-08-03T22:00:06.516Z,99497.54
2017-08-03T22:02:36.064Z,99508.14
2017-08-03T22:05:06.362Z,99502.23
2017-08-03T22:07:35.916Z,99503.92
2017-08-03T22:10:05.078Z,99495.21
2017-08-03T22:12:34.713Z,99503.92
2017-08-03T22:15:05.254Z,99502.39
2017-08-03T22:17:34.803Z,99508.52
2017-08-03T22:20:04.096Z,99525.83
2017-08-03T22:22:33.631Z,99508.98
2017-08-03T22:25:03.334Z,99515.83
2017-08-03T22:27:33.017Z,99514.07
2017-08-03T22:30:02.603Z,99513.76
2017-08-03T22:32:32.143Z,99519.92
2017-08-03T22:35:01.702Z,99517.31
2017-08-03T22:37:31.343Z,99529.27
2017-08-03T22:40:00.881Z,99538.34
2017-08-03T22:42:30.419Z,99531.00
2017-08-03T22:45:00.893Z,99525.98
2017-08-03T22:47:30.466Z,99529.05
2017-08-03T22:50:00.042Z,99530.32
2017-08-03T22:52:29.593Z,99539.39
2017-08-03T22:54:59.267Z,99544.69
2017-08-03T22:57:28.796Z,99540.97
2017-08-03T22:59:58.358Z,99546.00
2017-08-03T23:02:27.896Z,99562.83
2017-08-03T23:04:57.955Z,99555.70
2017-08-03T23:07:27.500Z,99561.02
2017-08-03T23:09:57.639Z,99555.59
2017-08-03T23:12:27.944Z,99556.06
2017-08-03T23:14:57.662Z,99563.39
2017-08-03T23:17:27.159Z,99560.01
2017-08-03T23:19:56.681Z,99560.16
2017-08-03T23:22:26.982Z,99559.30
2017-08-03T23:24:56.567Z,99568.64
2017-08-03T23:27:26.107Z,99564.17
2017-08-03T23:29:55.629Z,99557.71
2017-08-03T23:32:26.466Z,99557.34
2017-08-03T23:34:56.764Z,99558.41
2017-08-03T23:37:26.285Z,99556.20
2017-08-03T23:39:56.150Z,99556.32
2017-08-03T23:42:25.674Z,99554.00
2017-08-03T23:44:55.212Z,99544.94
2017-08-03T23:47:24.732Z,99538.67
2017-08-03T23:49:55.048Z,99552.67
2017-08-03T23:52:24.573Z,99547.98
2017-08-03T23:54:54.123Z,99539.75
2017-08-03T23:57:23.750Z,99541.77
2017-08-03T23:59:53.278Z,99530.09
